createdAt,value
2019-02-12T00:01:14.817Z,68.24
2019-02-12T00:03:43.484Z,68.32
2019-02-12T00:06:12.077Z,68.37
2019-02-12T00:08:40.689Z,68.68
2019-02-12T00:11:09.340Z,68.45
2019-02-12T00:13:37.946Z,68.97
2019-02-12T00:16:06.534Z,69.38
2019-02-12T00:18:35.162Z,68.92
2019-02-12T00:21:09.244Z,69.29
2019-02-12T00:23:34.178Z,68.47
2019-02-12T00:26:02.845Z,68.61
2019-02-12T00:28:31.608Z,68.74
2019-02-12T00:31:00.266Z,68.97
2019-02-12T00:33:28.962Z,69.70
2019-02-12T00:35:57.612Z,69.34
2019-02-12T00:38:26.199Z,69.14
2019-02-12T00:40:54.835Z,69.09
2019-02-12T00:43:23.443Z,68.83
2019-02-12T00:45:52.070Z,68.26
2019-02-12T00:48:20.680Z,68.44
2019-02-12T00:50:49.299Z,68.27
2019-02-12T00:53:18.042Z,68.21
2019-02-12T00:55:46.726Z,68.86
2019-02-12T00:58:15.358Z,68.86
2019-02-12T01:00:46.875Z,68.79
2019-02-12T01:03:18.620Z,69.25
2019-02-12T01:05:49.976Z,69.08
2019-02-12T01:08:21.836Z,69.36
2019-02-12T01:10:53.679Z,69.49
2019-02-12T01:13:25.564Z,69.59
2019-02-12T01:15:57.047Z,69.91
2019-02-12T01:18:30.836Z,70.04
2019-02-12T01:21:01.630Z,70.19
2019-02-12T01:23:30.319Z,69.52
2019-02-12T01:25:58.931Z,69.97
2019-02-12T01:28:27.542Z,69.99
2019-02-12T01:30:56.201Z,69.96
2019-02-12T01:33:24.815Z,69.62
2019-02-12T01:35:53.518Z,69.60
2019-02-12T01:38:22.146Z,69.27
2019-02-12T01:40:50.738Z,69.19
2019-02-12T01:43:19.336Z,69.25
2019-02-12T01:45:48.086Z,68.91
2019-02-12T01:48:16.646Z,68.37
2019-02-12T01:50:45.245Z,68.05
2019-02-12T01:53:13.860Z,67.98
2019-02-12T01:55:42.473Z,68.21
2019-02-12T01:58:11.285Z,68.68
2019-02-12T02:00:39.912Z,68.25
2019-02-12T02:03:08.574Z,68.23
2019-02-12T02:05:37.180Z,68.92
2019-02-12T02:08:05.771Z,69.08
2019-02-12T02:10:34.430Z,68.97
2019-02-12T02:13:03.124Z,68.90
2019-02-12T02:15:31.733Z,68.76
2019-02-12T02:18:00.355Z,68.32
2019-02-12T02:20:29.074Z,67.94
2019-02-12T02:22:57.757Z,68.27
2019-02-12T02:25:26.343Z,67.95
2019-02-12T02:27:54.987Z,68.45
2019-02-12T02:30:23.598Z,67.75
2019-02-12T02:32:53.085Z,67.74
2019-02-12T02:35:21.761Z,67.37
2019-02-12T02:37:50.388Z,67.28
2019-02-12T02:40:18.979Z,67.08
2019-02-12T02:42:47.686Z,66.26
2019-02-12T02:45:16.349Z,65.84
2019-02-12T02:47:44.954Z,65.62
2019-02-12T02:50:13.556Z,64.84
2019-02-12T02:52:42.163Z,64.05
2019-02-12T02:55:11.250Z,64.82
2019-02-12T02:57:39.893Z,65.07
2019-02-12T03:00:09.069Z,65.17
2019-02-12T03:02:37.691Z,65.20
2019-02-12T03:05:07.912Z,65.82
2019-02-12T03:07:36.667Z,66.40
2019-02-12T03:10:05.282Z,67.43
2019-02-12T03:12:33.876Z,68.02
2019-02-12T03:15:02.522Z,68.26
2019-02-12T03:17:31.188Z,68.63
2019-02-12T03:19:59.811Z,68.85
2019-02-12T03:22:28.478Z,69.31
2019-02-12T03:24:57.094Z,69.55
2019-02-12T03:27:25.779Z,69.45
2019-02-12T03:29:54.433Z,69.57
2019-02-12T03:32:23.124Z,69.61
2019-02-12T03:34:51.741Z,70.14
2019-02-12T03:37:20.362Z,70.35
2019-02-12T03:39:49.208Z,70.74
2019-02-12T03:42:17.786Z,70.72
2019-02-12T03:44:46.394Z,71.57
2019-02-12T03:47:15.057Z,71.83
2019-02-12T03:49:43.659Z,72.32
2019-02-12T03:52:13.203Z,72.07
2019-02-12T03:54:42.161Z,71.66
2019-02-12T03:57:10.875Z,71.93
2019-02-12T03:59:39.477Z,72.43
2019-02-12T04:02:08.400Z,72.45
2019-02-12T04:04:37.005Z,72.11
2019-02-12T04:07:05.631Z,72.20
2019-02-12T04:09:34.253Z,72.01
2019-02-12T04:12:02.882Z,71.68
2019-02-12T04:14:31.518Z,71.33
2019-02-12T04:17:00.169Z,71.05
2019-02-12T04:19:28.794Z,70.90
2019-02-12T04:21:57.456Z,70.56
2019-02-12T04:24:26.057Z,70.04
2019-02-12T04:26:54.659Z,69.89
2019-02-12T04:29:23.296Z,69.49
2019-02-12T04:31:51.940Z,69.27
2019-02-12T04:34:20.531Z,69.13
2019-02-12T04:36:49.158Z,69.14
2019-02-12T04:39:17.758Z,68.76
2019-02-12T04:41:46.412Z,68.28
2019-02-12T04:44:15.064Z,68.29
2019-02-12T04:46:43.702Z,68.25
2019-02-12T04:49:12.371Z,68.36
2019-02-12T04:51:41.201Z,68.21
2019-02-12T04:54:09.872Z,68.07
2019-02-12T04:56:38.533Z,68.41
2019-02-12T04:59:07.162Z,68.67
2019-02-12T05:01:35.803Z,68.67
2019-02-12T05:04:04.452Z,68.57
2019-02-12T05:06:33.039Z,68.59
2019-02-12T05:09:19.142Z,68.60
2019-02-12T05:11:51.098Z,68.59
2019-02-12T05:14:19.714Z,68.53
2019-02-12T05:16:48.358Z,68.47
2019-02-12T05:19:16.980Z,68.22
2019-02-12T05:21:45.607Z,68.35
2019-02-12T05:24:14.239Z,68.25
2019-02-12T05:26:42.867Z,68.40
2019-02-12T05:29:11.615Z,68.21
2019-02-12T05:31:40.213Z,68.24
2019-02-12T05:34:08.846Z,68.27
2019-02-12T05:36:37.462Z,68.30
2019-02-12T05:39:06.292Z,68.21
2019-02-12T05:41:34.941Z,68.19
2019-02-12T05:44:03.563Z,68.13
2019-02-12T05:46:32.142Z,68.13
2019-02-12T05:49:00.788Z,67.53
2019-02-12T05:51:29.398Z,67.84
2019-02-12T05:53:58.059Z,67.66
2019-02-12T05:56:26.661Z,67.73
2019-02-12T05:58:55.257Z,67.06
2019-02-12T06:01:23.852Z,67.17
2019-02-12T06:03:52.527Z,67.27
2019-02-12T06:06:21.178Z,67.14
2019-02-12T06:08:49.812Z,66.91
2019-02-12T06:11:18.444Z,66.37
2019-02-12T06:13:47.081Z,66.60
2019-02-12T06:16:15.710Z,66.43
2019-02-12T06:18:44.341Z,66.36
2019-02-12T06:21:12.941Z,66.49
2019-02-12T06:23:41.550Z,66.23
2019-02-12T06:26:10.219Z,66.37
2019-02-12T06:28:38.870Z,66.57
2019-02-12T06:31:07.464Z,66.60
2019-02-12T06:33:36.067Z,67.06
2019-02-12T06:36:04.647Z,67.08
2019-02-12T06:38:33.256Z,67.39
2019-02-12T06:41:01.854Z,67.49
2019-02-12T06:43:30.473Z,67.21
2019-02-12T06:45:59.134Z,67.48
2019-02-12T06:48:27.768Z,67.58
2019-02-12T06:50:56.423Z,67.55
2019-02-12T06:53:25.075Z,67.65
2019-02-12T06:55:53.788Z,67.62
2019-02-12T06:58:22.381Z,67.89
2019-02-12T07:00:51.013Z,67.84
2019-02-12T07:03:21.962Z,67.89
2019-02-12T07:06:18.055Z,67.62
2019-02-12T07:09:12.747Z,67.56
2019-02-12T07:12:11.147Z,67.32
2019-02-12T07:15:04.768Z,67.32
2019-02-12T07:18:17.696Z,67.32
2019-02-12T07:21:12.150Z,67.22
2019-02-12T07:24:28.043Z,66.93
2019-02-12T07:27:33.596Z,66.97
2019-02-12T07:30:32.620Z,66.88
2019-02-12T07:33:18.849Z,66.71
2019-02-12T07:36:21.102Z,66.26
2019-02-12T07:39:08.480Z,66.15
2019-02-12T07:42:17.321Z,66.51
2019-02-12T07:45:26.526Z,66.30
2019-02-12T07:48:51.560Z,66.29
2019-02-12T07:52:06.657Z,66.17
2019-02-12T07:55:08.280Z,66.26
2019-02-12T07:58:13.169Z,66.84
2019-02-12T08:01:19.084Z,66.79
2019-02-12T08:04:13.086Z,66.74
2019-02-12T08:07:05.161Z,66.63
2019-02-12T08:10:15.667Z,66.73
2019-02-12T08:13:15.082Z,66.47
2019-02-12T08:16:25.631Z,66.06
2019-02-12T08:19:53.643Z,65.80
2019-02-12T08:22:54.803Z,65.74
2019-02-12T08:25:45.332Z,65.35
2019-02-12T08:28:35.053Z,65.32
2019-02-12T08:31:33.757Z,65.20
2019-02-12T08:34:45.005Z,65.05
2019-02-12T08:37:45.877Z,64.38
2019-02-12T08:40:43.420Z,64.28
2019-02-12T08:43:51.197Z,64.07
2019-02-12T08:46:32.359Z,64.05
2019-02-12T08:49:38.085Z,63.38
2019-02-12T08:53:03.554Z,62.98
2019-02-12T08:56:01.306Z,61.75
2019-02-12T08:59:00.947Z,61.48
2019-02-12T09:01:49.582Z,61.06
2019-02-12T09:04:44.378Z,61.25
2019-02-12T09:07:31.515Z,60.60
2019-02-12T09:10:25.576Z,59.86
2019-02-12T09:13:07.888Z,59.85
2019-02-12T09:16:09.006Z,60.07
2019-02-12T09:18:53.868Z,59.80
2019-02-12T09:22:22.102Z,60.10
2019-02-12T09:24:58.651Z,60.04
2019-02-12T09:27:53.798Z,59.56
2019-02-12T09:30:51.520Z,59.46
2019-02-12T09:34:16.539Z,59.02
2019-02-12T09:37:41.340Z,59.07
2019-02-12T09:40:59.917Z,59.17
2019-02-12T09:43:58.080Z,58.87
2019-02-12T09:47:14.670Z,58.21
2019-02-12T09:50:39.550Z,58.34
2019-02-12T09:53:38.414Z,58.68
2019-02-12T09:56:24.546Z,58.59
2019-02-12T09:59:08.638Z,58.71
2019-02-12T10:01:53.880Z,58.50
2019-02-12T10:05:07.827Z,58.02
2019-02-12T10:07:59.409Z,57.89
2019-02-12T10:10:59.258Z,58.28
2019-02-12T10:14:02.454Z,57.99
2019-02-12T10:17:00.509Z,57.84
2019-02-12T10:19:45.897Z,57.70
2019-02-12T10:22:26.621Z,57.63
2019-02-12T10:25:17.152Z,57.49
2019-02-12T10:28:13.072Z,57.50
2019-02-12T10:31:02.380Z,57.73
2019-02-12T10:33:30.970Z,57.69
2019-02-12T10:35:59.578Z,57.84
2019-02-12T10:38:28.171Z,57.82
2019-02-12T10:40:56.859Z,57.87
2019-02-12T10:43:25.525Z,57.82
2019-02-12T10:45:54.193Z,57.51
2019-02-12T10:48:22.806Z,57.50
2019-02-12T10:50:51.393Z,57.15
2019-02-12T10:53:19.964Z,56.93
2019-02-12T10:55:48.602Z,56.90
2019-02-12T10:58:17.265Z,56.83
2019-02-12T11:00:45.898Z,56.57
2019-02-12T11:03:14.550Z,56.47
2019-02-12T11:05:43.132Z,56.72
2019-02-12T11:08:11.771Z,56.84
2019-02-12T11:10:40.391Z,56.82
2019-02-12T11:13:09.029Z,56.72
2019-02-12T11:15:37.753Z,55.97
2019-02-12T11:18:06.341Z,56.58
2019-02-12T11:20:35.032Z,57.55
2019-02-12T11:23:03.612Z,57.16
2019-02-12T11:25:32.261Z,56.88
2019-02-12T11:28:01.003Z,56.09
2019-02-12T11:30:29.623Z,56.12
2019-02-12T11:32:58.298Z,55.68
2019-02-12T11:35:27.049Z,55.56
2019-02-12T11:37:55.702Z,55.77
2019-02-12T11:40:24.424Z,55.41
2019-02-12T11:42:53.233Z,54.94
2019-02-12T11:45:21.858Z,55.15
2019-02-12T11:47:50.501Z,54.87
2019-02-12T11:50:19.186Z,55.26
2019-02-12T11:52:47.812Z,54.78
2019-02-12T11:55:16.578Z,54.70
2019-02-12T11:57:45.224Z,54.88
2019-02-12T12:00:16.179Z,54.70
2019-02-12T12:02:44.781Z,55.21
2019-02-12T12:05:13.456Z,54.92
2019-02-12T12:07:42.045Z,54.90
2019-02-12T12:10:10.697Z,54.36
2019-02-12T12:12:39.317Z,54.50
2019-02-12T12:15:08.628Z,54.14
2019-02-12T12:17:37.228Z,53.93
2019-02-12T12:20:06.400Z,54.25
2019-02-12T12:22:35.180Z,53.83
2019-02-12T12:25:04.077Z,53.26
2019-02-12T12:27:32.667Z,53.33
2019-02-12T12:30:01.291Z,52.71
2019-02-12T12:32:29.867Z,52.07
2019-02-12T12:34:59.221Z,52.17
2019-02-12T12:37:27.926Z,51.92
2019-02-12T12:39:56.558Z,51.78
2019-02-12T12:42:25.272Z,51.95
2019-02-12T12:44:54.037Z,52.39
2019-02-12T12:47:22.654Z,52.91
2019-02-12T12:49:51.358Z,52.72
2019-02-12T12:52:20.019Z,52.68
2019-02-12T12:54:48.674Z,52.71
2019-02-12T12:57:17.304Z,51.88
2019-02-12T12:59:45.883Z,51.84
2019-02-12T13:02:15.271Z,52.27
2019-02-12T13:04:43.862Z,52.32
2019-02-12T13:07:12.575Z,52.42
2019-02-12T13:09:41.227Z,52.32
2019-02-12T13:12:09.822Z,51.89
2019-02-12T13:14:38.450Z,51.29
2019-02-12T13:17:07.048Z,51.74
2019-02-12T13:19:35.735Z,51.26
2019-02-12T13:22:04.336Z,51.29
2019-02-12T13:24:32.899Z,51.44
2019-02-12T13:27:01.518Z,51.05
2019-02-12T13:29:30.189Z,50.43
2019-02-12T13:31:58.936Z,51.10
2019-02-12T13:34:27.567Z,50.90
2019-02-12T13:36:56.206Z,50.70
2019-02-12T13:39:24.774Z,50.41
2019-02-12T13:41:53.398Z,50.35
2019-02-12T13:44:22.264Z,50.12
2019-02-12T13:46:50.894Z,49.76
2019-02-12T13:49:19.663Z,49.12
2019-02-12T13:51:48.306Z,49.51
2019-02-12T13:54:16.879Z,49.10
2019-02-12T13:56:45.499Z,48.92
2019-02-12T13:59:14.159Z,48.66
2019-02-12T14:01:42.758Z,47.75
2019-02-12T14:04:11.342Z,46.80
2019-02-12T14:06:39.972Z,47.10
2019-02-12T14:09:10.646Z,46.68
2019-02-12T14:11:39.388Z,46.74
2019-02-12T14:14:08.009Z,46.21
2019-02-12T14:16:36.779Z,46.12
2019-02-12T14:19:05.384Z,44.82
2019-02-12T14:21:33.981Z,45.34
2019-02-12T14:24:02.596Z,45.38
2019-02-12T14:26:31.310Z,45.13
2019-02-12T14:28:59.927Z,44.90
2019-02-12T14:31:28.512Z,44.60
2019-02-12T14:33:57.340Z,44.42
2019-02-12T14:36:26.300Z,44.24
2019-02-12T14:38:55.244Z,43.77
2019-02-12T14:41:24.071Z,43.86
2019-02-12T14:43:53.050Z,44.41
2019-02-12T14:46:24.534Z,44.31
2019-02-12T14:48:53.406Z,44.49
2019-02-12T14:51:22.248Z,45.00
2019-02-12T14:53:51.125Z,45.24
2019-02-12T14:56:20.079Z,44.87
2019-02-12T14:58:49.062Z,45.21
2019-02-12T15:01:18.026Z,45.22
2019-02-12T15:03:46.951Z,45.16
2019-02-12T15:06:15.792Z,45.08
2019-02-12T15:08:44.636Z,44.75
2019-02-12T15:11:13.677Z,44.93
2019-02-12T15:13:42.564Z,44.42
2019-02-12T15:16:11.564Z,44.71
2019-02-12T15:18:40.491Z,44.98
2019-02-12T15:21:09.319Z,44.77
2019-02-12T15:23:38.320Z,45.18
2019-02-12T15:26:07.128Z,45.29
2019-02-12T15:28:35.982Z,45.44
2019-02-12T15:31:05.026Z,45.23
2019-02-12T15:33:33.841Z,45.50
2019-02-12T15:36:02.840Z,45.82
2019-02-12T15:38:51.015Z,46.03
2019-02-12T15:41:20.037Z,46.31
2019-02-12T15:43:49.292Z,46.89
2019-02-12T15:46:18.391Z,47.16
2019-02-12T15:48:47.593Z,47.64
2019-02-12T15:51:16.585Z,47.82
2019-02-12T15:53:45.687Z,48.07
2019-02-12T15:56:14.834Z,48.18
2019-02-12T15:58:43.863Z,47.95
2019-02-12T16:01:12.773Z,48.41
2019-02-12T16:03:41.734Z,48.28
2019-02-12T16:06:11.447Z,48.59
2019-02-12T16:08:41.196Z,48.64
2019-02-12T16:11:10.492Z,48.76
2019-02-12T16:13:39.830Z,48.91
2019-02-12T16:16:09.927Z,49.19
2019-02-12T16:18:39.496Z,49.36
2019-02-12T16:21:08.839Z,49.80
2019-02-12T16:23:37.845Z,50.03
2019-02-12T16:26:06.832Z,50.40
2019-02-12T16:28:35.781Z,50.10
2019-02-12T16:31:04.693Z,49.93
2019-02-12T16:33:33.715Z,50.05
2019-02-12T16:36:02.563Z,50.46
2019-02-12T16:38:31.494Z,51.19
2019-02-12T16:41:00.418Z,51.19
2019-02-12T16:43:29.246Z,51.51
2019-02-12T16:46:04.716Z,51.39
2019-02-12T16:48:33.766Z,51.85
2019-02-12T16:51:03.192Z,51.89
2019-02-12T16:53:32.002Z,52.08
2019-02-12T16:56:08.173Z,52.39
2019-02-12T16:58:31.637Z,52.77
2019-02-12T17:01:00.624Z,52.77
2019-02-12T17:03:29.452Z,53.04
2019-02-12T17:05:58.458Z,53.36
2019-02-12T17:08:27.461Z,53.55
2019-02-12T17:10:56.352Z,53.93
2019-02-12T17:13:25.736Z,53.95
2019-02-12T17:15:54.684Z,54.24
2019-02-12T17:18:23.598Z,54.70
2019-02-12T17:20:52.724Z,55.07
2019-02-12T17:23:21.951Z,55.05
2019-02-12T17:25:50.814Z,55.24
2019-02-12T17:28:19.759Z,55.49
2019-02-12T17:30:48.645Z,56.00
2019-02-12T17:33:18.092Z,55.95
2019-02-12T17:35:47.540Z,56.08
2019-02-12T17:38:16.534Z,56.20
2019-02-12T17:40:45.400Z,56.47
2019-02-12T17:43:14.281Z,56.75
2019-02-12T17:45:43.197Z,56.86
2019-02-12T17:48:12.166Z,56.80
2019-02-12T17:50:41.114Z,57.12
2019-02-12T17:53:10.117Z,57.09
2019-02-12T17:55:38.976Z,57.45
2019-02-12T17:58:08.021Z,57.64
2019-02-12T18:00:41.764Z,57.57
2019-02-12T18:03:10.644Z,57.68
2019-02-12T18:05:39.625Z,57.52
2019-02-12T18:08:08.670Z,57.60
2019-02-12T18:10:37.625Z,57.41
2019-02-12T18:13:07.062Z,57.38
2019-02-12T18:15:36.023Z,57.85
2019-02-12T18:18:05.082Z,58.03
2019-02-12T18:20:33.927Z,58.32
2019-02-12T18:23:02.843Z,58.42
2019-02-12T18:25:31.947Z,58.40
2019-02-12T18:28:00.735Z,59.30
2019-02-12T18:30:29.666Z,59.93
2019-02-12T18:32:58.571Z,59.96
2019-02-12T18:35:27.513Z,61.08
2019-02-12T18:37:56.393Z,61.29
2019-02-12T18:40:25.433Z,62.35
2019-02-12T18:42:54.345Z,62.71
2019-02-12T18:45:23.334Z,63.03
2019-02-12T18:47:52.244Z,63.31
2019-02-12T18:50:21.175Z,63.55
2019-02-12T18:52:50.123Z,63.75
2019-02-12T18:55:19.239Z,63.38
2019-02-12T18:57:48.211Z,63.16
2019-02-12T19:00:18.615Z,62.58
2019-02-12T19:02:47.591Z,62.71
2019-02-12T19:05:16.761Z,62.40
2019-02-12T19:07:45.727Z,63.06
2019-02-12T19:10:14.889Z,62.53
2019-02-12T19:12:43.810Z,61.78
2019-02-12T19:15:14.371Z,61.64
2019-02-12T19:17:45.151Z,61.57
2019-02-12T19:20:14.090Z,61.85
2019-02-12T19:22:42.992Z,62.02
2019-02-12T19:25:11.976Z,62.27
2019-02-12T19:27:40.815Z,63.25
2019-02-12T19:30:12.010Z,64.03
2019-02-12T19:32:40.907Z,62.60
2019-02-12T19:35:09.922Z,62.35
2019-02-12T19:37:38.971Z,62.70
2019-02-12T19:40:08.572Z,63.59
2019-02-12T19:42:37.486Z,63.43
2019-02-12T19:45:07.575Z,63.80
2019-02-12T19:47:36.465Z,63.67
2019-02-12T19:50:06.282Z,63.98
2019-02-12T19:52:35.271Z,64.07
2019-02-12T19:55:04.558Z,64.21
2019-02-12T19:57:33.498Z,63.53
2019-02-12T20:00:02.574Z,63.00
2019-02-12T20:02:33.274Z,62.58
2019-02-12T20:05:02.617Z,62.32
2019-02-12T20:07:31.524Z,62.79
2019-02-12T20:10:00.603Z,63.92
2019-02-12T20:12:32.122Z,63.81
2019-02-12T20:15:08.359Z,63.77
2019-02-12T20:17:37.503Z,63.94
2019-02-12T20:20:07.797Z,64.60
2019-02-12T20:22:36.809Z,65.04
2019-02-12T20:25:06.171Z,64.74
2019-02-12T20:27:36.128Z,63.68
2019-02-12T20:30:06.721Z,64.51
2019-02-12T20:32:35.674Z,63.98
2019-02-12T20:35:04.890Z,63.33
2019-02-12T20:37:34.747Z,63.01
2019-02-12T20:40:05.457Z,62.85
2019-02-12T20:42:34.468Z,62.45
2019-02-12T20:45:03.721Z,61.82
2019-02-12T20:47:32.775Z,61.47
2019-02-12T20:50:01.881Z,61.44
2019-02-12T20:52:31.291Z,61.82
2019-02-12T20:55:00.297Z,61.97
2019-02-12T20:57:29.456Z,62.39
2019-02-12T20:59:58.347Z,61.74
2019-02-12T21:02:29.474Z,61.14
2019-02-12T21:04:58.503Z,61.63
2019-02-12T21:07:27.738Z,60.42
2019-02-12T21:09:57.122Z,60.40
2019-02-12T21:12:25.995Z,61.02
2019-02-12T21:14:54.933Z,61.22
2019-02-12T21:17:23.828Z,60.90
2019-02-12T21:19:52.658Z,61.41
2019-02-12T21:22:22.624Z,62.25
2019-02-12T21:24:51.658Z,62.28
2019-02-12T21:27:23.543Z,61.12
2019-02-12T21:29:51.107Z,60.36
2019-02-12T21:32:19.948Z,60.98
2019-02-12T21:34:48.941Z,60.98
2019-02-12T21:37:17.854Z,61.05
2019-02-12T21:39:47.188Z,60.62
2019-02-12T21:42:16.209Z,60.60
2019-02-12T21:44:45.171Z,61.58
2019-02-12T21:47:14.112Z,62.21
2019-02-12T21:49:42.962Z,61.97
2019-02-12T21:52:11.920Z,61.81
2019-02-12T21:54:40.949Z,62.00
2019-02-12T21:57:09.872Z,61.39
2019-02-12T21:59:38.693Z,61.29
2019-02-12T22:02:07.607Z,61.29
2019-02-12T22:04:36.555Z,61.55
2019-02-12T22:07:05.545Z,61.76
2019-02-12T22:09:34.461Z,62.50
2019-02-12T22:12:03.287Z,62.84
2019-02-12T22:14:32.486Z,63.26
2019-02-12T22:17:01.502Z,63.29
2019-02-12T22:19:30.287Z,62.82
2019-02-12T22:21:59.266Z,63.05
2019-02-12T22:24:28.209Z,62.75
2019-02-12T22:26:57.157Z,63.32
2019-02-12T22:29:26.034Z,63.49
2019-02-12T22:31:54.924Z,63.33
2019-02-12T22:34:23.780Z,64.02
2019-02-12T22:36:52.657Z,65.06
2019-02-12T22:39:22.090Z,65.39
2019-02-12T22:41:50.989Z,65.49
2019-02-12T22:44:19.964Z,65.62
2019-02-12T22:46:48.955Z,66.01
2019-02-12T22:49:18.150Z,65.35
2019-02-12T22:51:47.065Z,64.49
2019-02-12T22:54:15.973Z,64.33
2019-02-12T22:56:44.828Z,64.85
2019-02-12T22:59:13.682Z,64.61
2019-02-12T23:01:42.848Z,65.40
2019-02-12T23:04:11.732Z,66.68
2019-02-12T23:06:40.718Z,67.36
2019-02-12T23:09:18.293Z,68.42
2019-02-12T23:11:47.225Z,68.05
2019-02-12T23:14:16.205Z,66.74
2019-02-12T23:16:45.151Z,66.46
2019-02-12T23:19:14.148Z,66.91
2019-02-12T23:21:43.014Z,67.03
2019-02-12T23:24:11.998Z,67.33
2019-02-12T23:26:40.973Z,67.45
2019-02-12T23:29:10.029Z,67.75
2019-02-12T23:31:38.826Z,67.81
2019-02-12T23:34:07.846Z,68.24
2019-02-12T23:36:36.711Z,68.91
2019-02-12T23:39:06.385Z,68.59
2019-02-12T23:41:35.542Z,68.37
2019-02-12T23:44:04.425Z,68.97
2019-02-12T23:46:33.325Z,69.97
2019-02-12T23:49:02.250Z,70.56
2019-02-12T23:51:31.083Z,71.02
2019-02-12T23:53:59.895Z,70.89
2019-02-12T23:56:28.923Z,71.13
2019-02-12T23:58:57.975Z,71.83
